sensor_id;sensor_type;location;lat;lon;timestamp;P1;durP1;ratioP1;P2;durP2;ratioP2
58091;SDS011;43896;48.178;11.578;2022-09-09T00:00:37;2.55;;;0.95;;
58091;SDS011;43896;48.178;11.578;2022-09-09T00:03:12;5.93;;;1.08;;
58091;SDS011;43896;48.178;11.578;2022-09-09T00:08:48;3.03;;;1.10;;
58091;SDS011;43896;48.178;11.578;2022-09-09T00:12:06;3.40;;;1.10;;
58091;SDS011;43896;48.178;11.578;2022-09-09T00:14:37;2.83;;;1.05;;
58091;SDS011;43896;48.178;11.578;2022-09-09T00:17:07;4.75;;;1.20;;
58091;SDS011;43896;48.178;11.578;2022-09-09T00:19:59;2.15;;;1.00;;
58091;SDS011;43896;48.178;11.578;2022-09-09T00:22:35;3.28;;;1.10;;
58091;SDS011;43896;48.178;11.578;2022-09-09T00:25:12;3.40;;;1.30;;
58091;SDS011;43896;48.178;11.578;2022-09-09T00:27:47;3.05;;;1.20;;
58091;SDS011;43896;48.178;11.578;2022-09-09T00:30:17;2.72;;;1.20;;
58091;SDS011;43896;48.178;11.578;2022-09-09T00:32:47;3.60;;;1.20;;
58091;SDS011;43896;48.178;11.578;2022-09-09T00:35:24;2.72;;;1.20;;
58091;SDS011;43896;48.178;11.578;2022-09-09T00:37:51;3.67;;;1.27;;
58091;SDS011;43896;48.178;11.578;2022-09-09T00:43:00;2.70;;;1.20;;
58091;SDS011;43896;48.178;11.578;2022-09-09T01:02:01;3.28;;;1.10;;
58091;SDS011;43896;48.178;11.578;2022-09-09T01:04:37;3.90;;;1.20;;
58091;SDS011;43896;48.178;11.578;2022-09-09T01:07:06;2.38;;;1.00;;
58091;SDS011;43896;48.178;11.578;2022-09-09T01:14:52;3.03;;;1.00;;
58091;SDS011;43896;48.178;11.578;2022-09-09T01:17:34;2.55;;;1.17;;
58091;SDS011;43896;48.178;11.578;2022-09-09T01:20:14;2.60;;;1.10;;
58091;SDS011;43896;48.178;11.578;2022-09-09T01:25:27;2.47;;;1.00;;
58091;SDS011;43896;48.178;11.578;2022-09-09T01:27:54;3.28;;;1.10;;
58091;SDS011;43896;48.178;11.578;2022-09-09T01:30:23;3.65;;;1.10;;
58091;SDS011;43896;48.178;11.578;2022-09-09T01:32:51;3.42;;;1.25;;
58091;SDS011;43896;48.178;11.578;2022-09-09T01:38:03;3.95;;;1.35;;
58091;SDS011;43896;48.178;11.578;2022-09-09T01:40:29;3.08;;;1.02;;
58091;SDS011;43896;48.178;11.578;2022-09-09T01:42:54;2.40;;;1.17;;
58091;SDS011;43896;48.178;11.578;2022-09-09T01:45:20;2.38;;;1.10;;
58091;SDS011;43896;48.178;11.578;2022-09-09T01:47:46;2.97;;;1.13;;
58091;SDS011;43896;48.178;11.578;2022-09-09T01:50:13;4.88;;;1.38;;
58091;SDS011;43896;48.178;11.578;2022-09-09T01:52:41;3.97;;;1.40;;
58091;SDS011;43896;48.178;11.578;2022-09-09T01:55:08;2.88;;;1.25;;
58091;SDS011;43896;48.178;11.578;2022-09-09T01:57:55;5.05;;;1.70;;
58091;SDS011;43896;48.178;11.578;2022-09-09T02:00:28;4.40;;;1.35;;
58091;SDS011;43896;48.178;11.578;2022-09-09T02:03:12;4.18;;;1.50;;
58091;SDS011;43896;48.178;11.578;2022-09-09T02:05:40;4.60;;;1.60;;
58091;SDS011;43896;48.178;11.578;2022-09-09T02:08:11;4.85;;;1.50;;
58091;SDS011;43896;48.178;11.578;2022-09-09T02:11:05;2.90;;;1.30;;
58091;SDS011;43896;48.178;11.578;2022-09-09T02:13:36;4.32;;;1.42;;
58091;SDS011;43896;48.178;11.578;2022-09-09T02:16:04;2.72;;;1.40;;
58091;SDS011;43896;48.178;11.578;2022-09-09T02:18:38;4.45;;;1.50;;
58091;SDS011;43896;48.178;11.578;2022-09-09T02:21:11;3.58;;;1.50;;
58091;SDS011;43896;48.178;11.578;2022-09-09T02:23:38;4.80;;;1.50;;
58091;SDS011;43896;48.178;11.578;2022-09-09T02:26:06;4.22;;;1.30;;
58091;SDS011;43896;48.178;11.578;2022-09-09T02:28:35;2.97;;;1.50;;
58091;SDS011;43896;48.178;11.578;2022-09-09T02:31:03;4.32;;;1.30;;
58091;SDS011;43896;48.178;11.578;2022-09-09T02:33:30;2.95;;;1.30;;
58091;SDS011;43896;48.178;11.578;2022-09-09T02:36:00;4.60;;;1.30;;
58091;SDS011;43896;48.178;11.578;2022-09-09T02:38:28;3.95;;;1.30;;
58091;SDS011;43896;48.178;11.578;2022-09-09T02:43:23;2.15;;;1.10;;
58091;SDS011;43896;48.178;11.578;2022-09-09T02:48:20;3.57;;;1.30;;
58091;SDS011;43896;48.178;11.578;2022-09-09T02:50:57;3.70;;;1.35;;
58091;SDS011;43896;48.178;11.578;2022-09-09T02:53:35;4.85;;;1.40;;
58091;SDS011;43896;48.178;11.578;2022-09-09T02:56:09;2.75;;;1.30;;
58091;SDS011;43896;48.178;11.578;2022-09-09T02:58:40;2.15;;;1.15;;
58091;SDS011;43896;48.178;11.578;2022-09-09T03:01:06;3.30;;;1.27;;
58091;SDS011;43896;48.178;11.578;2022-09-09T03:03:33;2.80;;;1.20;;
58091;SDS011;43896;48.178;11.578;2022-09-09T03:05:59;2.65;;;1.13;;
58091;SDS011;43896;48.178;11.578;2022-09-09T03:08:25;3.10;;;1.08;;
58091;SDS011;43896;48.178;11.578;2022-09-09T03:10:53;2.42;;;1.10;;
58091;SDS011;43896;48.178;11.578;2022-09-09T03:13:19;2.45;;;1.15;;
58091;SDS011;43896;48.178;11.578;2022-09-09T03:15:45;2.55;;;1.10;;
58091;SDS011;43896;48.178;11.578;2022-09-09T03:18:10;3.22;;;1.10;;
58091;SDS011;43896;48.178;11.578;2022-09-09T03:20:36;3.50;;;1.20;;
58091;SDS011;43896;48.178;11.578;2022-09-09T03:23:01;2.22;;;1.00;;
58091;SDS011;43896;48.178;11.578;2022-09-09T03:25:27;2.83;;;1.20;;
58091;SDS011;43896;48.178;11.578;2022-09-09T03:27:53;1.75;;;0.90;;
58091;SDS011;43896;48.178;11.578;2022-09-09T03:30:23;3.28;;;1.20;;
58091;SDS011;43896;48.178;11.578;2022-09-09T03:32:50;2.78;;;1.10;;
58091;SDS011;43896;48.178;11.578;2022-09-09T03:35:15;3.88;;;1.00;;
58091;SDS011;43896;48.178;11.578;2022-09-09T03:37:41;3.72;;;1.20;;
58091;SDS011;43896;48.178;11.578;2022-09-09T03:40:06;3.10;;;1.08;;
58091;SDS011;43896;48.178;11.578;2022-09-09T03:42:34;2.40;;;1.02;;
58091;SDS011;43896;48.178;11.578;2022-09-09T03:45:01;3.65;;;1.10;;
58091;SDS011;43896;48.178;11.578;2022-09-09T03:47:27;4.22;;;1.20;;
58091;SDS011;43896;48.178;11.578;2022-09-09T03:49:53;2.28;;;1.10;;
58091;SDS011;43896;48.178;11.578;2022-09-09T03:52:18;2.70;;;1.08;;
58091;SDS011;43896;48.178;11.578;2022-09-09T03:54:44;3.40;;;1.10;;
58091;SDS011;43896;48.178;11.578;2022-09-09T03:57:10;3.72;;;1.15;;
58091;SDS011;43896;48.178;11.578;2022-09-09T03:59:35;2.38;;;0.90;;
58091;SDS011;43896;48.178;11.578;2022-09-09T04:02:01;3.22;;;1.20;;
58091;SDS011;43896;48.178;11.578;2022-09-09T04:04:27;3.47;;;1.35;;
58091;SDS011;43896;48.178;11.578;2022-09-09T04:06:52;3.22;;;1.10;;
58091;SDS011;43896;48.178;11.578;2022-09-09T04:09:18;3.42;;;1.20;;
58091;SDS011;43896;48.178;11.578;2022-09-09T04:11:43;1.98;;;0.93;;
58091;SDS011;43896;48.178;11.578;2022-09-09T04:14:09;2.97;;;1.10;;
58091;SDS011;43896;48.178;11.578;2022-09-09T04:16:34;3.58;;;1.15;;
58091;SDS011;43896;48.178;11.578;2022-09-09T04:19:02;2.42;;;1.13;;
58091;SDS011;43896;48.178;11.578;2022-09-09T04:21:29;2.85;;;1.13;;
58091;SDS011;43896;48.178;11.578;2022-09-09T04:23:54;2.55;;;1.00;;
58091;SDS011;43896;48.178;11.578;2022-09-09T04:26:20;4.95;;;1.42;;
58091;SDS011;43896;48.178;11.578;2022-09-09T04:28:45;2.13;;;0.93;;
58091;SDS011;43896;48.178;11.578;2022-09-09T04:31:14;3.75;;;1.38;;
58091;SDS011;43896;48.178;11.578;2022-09-09T04:33:46;3.20;;;1.05;;
58091;SDS011;43896;48.178;11.578;2022-09-09T04:36:11;2.33;;;1.10;;
58091;SDS011;43896;48.178;11.578;2022-09-09T04:38:37;2.67;;;1.10;;
58091;SDS011;43896;48.178;11.578;2022-09-09T04:41:03;3.30;;;1.02;;
58091;SDS011;43896;48.178;11.578;2022-09-09T04:43:28;3.10;;;1.00;;
58091;SDS011;43896;48.178;11.578;2022-09-09T04:45:55;4.32;;;1.10;;
58091;SDS011;43896;48.178;11.578;2022-09-09T04:48:21;4.88;;;0.95;;
58091;SDS011;43896;48.178;11.578;2022-09-09T04:51:03;2.33;;;0.90;;
58091;SDS011;43896;48.178;11.578;2022-09-09T04:53:30;3.00;;;1.05;;
58091;SDS011;43896;48.178;11.578;2022-09-09T04:56:03;2.30;;;1.00;;
58091;SDS011;43896;48.178;11.578;2022-09-09T04:58:30;2.75;;;1.13;;
58091;SDS011;43896;48.178;11.578;2022-09-09T05:01:02;2.35;;;1.00;;
58091;SDS011;43896;48.178;11.578;2022-09-09T05:03:32;2.63;;;1.15;;
58091;SDS011;43896;48.178;11.578;2022-09-09T05:06:02;2.17;;;1.15;;
58091;SDS011;43896;48.178;11.578;2022-09-09T05:08:29;2.40;;;1.20;;
58091;SDS011;43896;48.178;11.578;2022-09-09T05:10:54;2.65;;;1.08;;
58091;SDS011;43896;48.178;11.578;2022-09-09T05:13:20;2.35;;;1.00;;
58091;SDS011;43896;48.178;11.578;2022-09-09T05:15:52;2.47;;;1.08;;
58091;SDS011;43896;48.178;11.578;2022-09-09T05:18:18;2.45;;;1.10;;
58091;SDS011;43896;48.178;11.578;2022-09-09T05:20:44;3.10;;;1.15;;
58091;SDS011;43896;48.178;11.578;2022-09-09T05:23:09;4.15;;;1.15;;
58091;SDS011;43896;48.178;11.578;2022-09-09T05:25:36;3.20;;;1.05;;
58091;SDS011;43896;48.178;11.578;2022-09-09T05:28:02;4.90;;;1.38;;
58091;SDS011;43896;48.178;11.578;2022-09-09T05:30:27;2.85;;;1.40;;
58091;SDS011;43896;48.178;11.578;2022-09-09T05:32:55;2.03;;;1.10;;
58091;SDS011;43896;48.178;11.578;2022-09-09T05:35:28;3.53;;;1.38;;
58091;SDS011;43896;48.178;11.578;2022-09-09T05:37:58;3.53;;;1.13;;
58091;SDS011;43896;48.178;11.578;2022-09-09T05:42:49;3.13;;;1.20;;
58091;SDS011;43896;48.178;11.578;2022-09-09T05:45:15;4.93;;;1.30;;
58091;SDS011;43896;48.178;11.578;2022-09-09T05:47:40;4.22;;;1.20;;
58091;SDS011;43896;48.178;11.578;2022-09-09T05:50:06;5.35;;;1.20;;
58091;SDS011;43896;48.178;11.578;2022-09-09T05:52:31;2.72;;;1.20;;
58091;SDS011;43896;48.178;11.578;2022-09-09T05:54:57;4.07;;;1.30;;
58091;SDS011;43896;48.178;11.578;2022-09-09T05:57:24;4.65;;;1.40;;
58091;SDS011;43896;48.178;11.578;2022-09-09T05:59:50;2.13;;;1.05;;
58091;SDS011;43896;48.178;11.578;2022-09-09T06:02:15;5.82;;;1.40;;
58091;SDS011;43896;48.178;11.578;2022-09-09T06:04:41;3.65;;;1.30;;
58091;SDS011;43896;48.178;11.578;2022-09-09T06:07:06;3.75;;;1.40;;
58091;SDS011;43896;48.178;11.578;2022-09-09T06:09:32;3.60;;;1.20;;
58091;SDS011;43896;48.178;11.578;2022-09-09T06:11:57;3.90;;;1.20;;
58091;SDS011;43896;48.178;11.578;2022-09-09T06:14:23;2.95;;;1.00;;
58091;SDS011;43896;48.178;11.578;2022-09-09T06:16:50;4.50;;;1.15;;
58091;SDS011;43896;48.178;11.578;2022-09-09T06:19:15;4.72;;;1.00;;
58091;SDS011;43896;48.178;11.578;2022-09-09T06:21:41;2.97;;;0.95;;
58091;SDS011;43896;48.178;11.578;2022-09-09T06:24:07;2.88;;;1.00;;
58091;SDS011;43896;48.178;11.578;2022-09-09T06:26:37;2.13;;;0.98;;
58091;SDS011;43896;48.178;11.578;2022-09-09T06:29:05;3.55;;;1.10;;
58091;SDS011;43896;48.178;11.578;2022-09-09T06:31:32;2.95;;;1.00;;
58091;SDS011;43896;48.178;11.578;2022-09-09T06:33:59;3.42;;;0.98;;
58091;SDS011;43896;48.178;11.578;2022-09-09T06:36:29;3.10;;;0.98;;
58091;SDS011;43896;48.178;11.578;2022-09-09T06:38:56;2.45;;;1.13;;
58091;SDS011;43896;48.178;11.578;2022-09-09T06:41:23;4.55;;;1.25;;
58091;SDS011;43896;48.178;11.578;2022-09-09T06:43:51;4.18;;;0.98;;
58091;SDS011;43896;48.178;11.578;2022-09-09T06:46:21;3.55;;;0.85;;
58091;SDS011;43896;48.178;11.578;2022-09-09T06:48:48;2.03;;;0.80;;
58091;SDS011;43896;48.178;11.578;2022-09-09T06:51:18;2.65;;;0.82;;
58091;SDS011;43896;48.178;11.578;2022-09-09T06:53:46;2.35;;;1.00;;
58091;SDS011;43896;48.178;11.578;2022-09-09T06:56:27;3.85;;;0.90;;
58091;SDS011;43896;48.178;11.578;2022-09-09T06:58:55;3.92;;;1.02;;
58091;SDS011;43896;48.178;11.578;2022-09-09T07:01:24;4.47;;;1.05;;
58091;SDS011;43896;48.178;11.578;2022-09-09T07:03:52;3.28;;;1.10;;
58091;SDS011;43896;48.178;11.578;2022-09-09T07:06:23;3.00;;;1.02;;
58091;SDS011;43896;48.178;11.578;2022-09-09T07:08:54;3.28;;;1.05;;
58091;SDS011;43896;48.178;11.578;2022-09-09T07:11:23;2.65;;;1.05;;
58091;SDS011;43896;48.178;11.578;2022-09-09T07:13:54;2.50;;;1.10;;
58091;SDS011;43896;48.178;11.578;2022-09-09T07:16:20;2.35;;;0.90;;
58091;SDS011;43896;48.178;11.578;2022-09-09T07:18:48;3.55;;;1.10;;
58091;SDS011;43896;48.178;11.578;2022-09-09T07:21:15;2.08;;;0.98;;
58091;SDS011;43896;48.178;11.578;2022-09-09T07:23:41;5.75;;;1.38;;
58091;SDS011;43896;48.178;11.578;2022-09-09T07:26:11;7.47;;;1.60;;
58091;SDS011;43896;48.178;11.578;2022-09-09T07:28:39;4.80;;;1.67;;
58091;SDS011;43896;48.178;11.578;2022-09-09T07:31:06;3.45;;;1.50;;
58091;SDS011;43896;48.178;11.578;2022-09-09T07:33:38;4.15;;;1.30;;
58091;SDS011;43896;48.178;11.578;2022-09-09T07:38:31;3.00;;;1.20;;
58091;SDS011;43896;48.178;11.578;2022-09-09T07:41:04;3.45;;;1.10;;
58091;SDS011;43896;48.178;11.578;2022-09-09T07:43:31;3.03;;;1.23;;
58091;SDS011;43896;48.178;11.578;2022-09-09T07:45:58;3.83;;;1.30;;
58091;SDS011;43896;48.178;11.578;2022-09-09T07:48:26;3.58;;;1.20;;
58091;SDS011;43896;48.178;11.578;2022-09-09T07:50:51;3.00;;;1.25;;
58091;SDS011;43896;48.178;11.578;2022-09-09T07:53:17;4.82;;;1.40;;
58091;SDS011;43896;48.178;11.578;2022-09-09T07:55:44;3.95;;;1.33;;
58091;SDS011;43896;48.178;11.578;2022-09-09T07:58:10;3.97;;;1.30;;
58091;SDS011;43896;48.178;11.578;2022-09-09T08:00:35;6.88;;;1.90;;
58091;SDS011;43896;48.178;11.578;2022-09-09T08:03:01;3.42;;;1.30;;
58091;SDS011;43896;48.178;11.578;2022-09-09T08:05:27;2.42;;;1.20;;
58091;SDS011;43896;48.178;11.578;2022-09-09T08:07:53;4.28;;;1.30;;
58091;SDS011;43896;48.178;11.578;2022-09-09T08:10:18;2.88;;;1.10;;
58091;SDS011;43896;48.178;11.578;2022-09-09T08:12:44;3.50;;;1.20;;
58091;SDS011;43896;48.178;11.578;2022-09-09T08:15:10;3.40;;;1.10;;
58091;SDS011;43896;48.178;11.578;2022-09-09T08:17:36;4.50;;;1.27;;
58091;SDS011;43896;48.178;11.578;2022-09-09T08:20:03;4.15;;;1.27;;
58091;SDS011;43896;48.178;11.578;2022-09-09T08:22:30;2.92;;;1.20;;
58091;SDS011;43896;48.178;11.578;2022-09-09T08:24:56;5.82;;;1.30;;
58091;SDS011;43896;48.178;11.578;2022-09-09T08:27:31;6.03;;;1.80;;
58091;SDS011;43896;48.178;11.578;2022-09-09T08:29:57;2.83;;;1.40;;
58091;SDS011;43896;48.178;11.578;2022-09-09T08:32:24;4.43;;;1.70;;
58091;SDS011;43896;48.178;11.578;2022-09-09T08:34:51;5.30;;;1.70;;
58091;SDS011;43896;48.178;11.578;2022-09-09T08:37:16;3.00;;;1.30;;
58091;SDS011;43896;48.178;11.578;2022-09-09T08:39:41;4.30;;;1.70;;
58091;SDS011;43896;48.178;11.578;2022-09-09T08:42:18;5.07;;;1.90;;
58091;SDS011;43896;48.178;11.578;2022-09-09T08:45:00;4.68;;;1.80;;
58091;SDS011;43896;48.178;11.578;2022-09-09T08:47:48;3.72;;;1.50;;
58091;SDS011;43896;48.178;11.578;2022-09-09T08:50:36;6.20;;;1.60;;
58091;SDS011;43896;48.178;11.578;2022-09-09T08:53:05;3.65;;;1.50;;
58091;SDS011;43896;48.178;11.578;2022-09-09T08:55:39;8.65;;;1.90;;
58091;SDS011;43896;48.178;11.578;2022-09-09T08:58:12;4.55;;;1.90;;
58091;SDS011;43896;48.178;11.578;2022-09-09T09:03:40;3.92;;;1.63;;
58091;SDS011;43896;48.178;11.578;2022-09-09T09:11:34;4.72;;;1.65;;
58091;SDS011;43896;48.178;11.578;2022-09-09T09:14:03;3.67;;;1.70;;
58091;SDS011;43896;48.178;11.578;2022-09-09T09:19:13;3.60;;;1.45;;
58091;SDS011;43896;48.178;11.578;2022-09-09T09:21:44;4.20;;;1.48;;
58091;SDS011;43896;48.178;11.578;2022-09-09T09:26:43;3.90;;;1.80;;
58091;SDS011;43896;48.178;11.578;2022-09-09T09:29:13;4.90;;;1.85;;
58091;SDS011;43896;48.178;11.578;2022-09-09T09:31:48;6.47;;;1.70;;
58091;SDS011;43896;48.178;11.578;2022-09-09T09:34:17;5.45;;;1.75;;
58091;SDS011;43896;48.178;11.578;2022-09-09T09:39:22;3.63;;;1.60;;
58091;SDS011;43896;48.178;11.578;2022-09-09T09:41:49;5.03;;;1.70;;
58091;SDS011;43896;48.178;11.578;2022-09-09T09:47:06;4.40;;;1.50;;
58091;SDS011;43896;48.178;11.578;2022-09-09T09:49:35;5.43;;;1.40;;
58091;SDS011;43896;48.178;11.578;2022-09-09T09:52:05;3.17;;;1.40;;
58091;SDS011;43896;48.178;11.578;2022-09-09T09:54:41;3.47;;;1.00;;
58091;SDS011;43896;48.178;11.578;2022-09-09T09:57:16;3.05;;;1.00;;
58091;SDS011;43896;48.178;11.578;2022-09-09T09:59:43;3.30;;;0.90;;
58091;SDS011;43896;48.178;11.578;2022-09-09T10:10:32;3.65;;;0.80;;
58091;SDS011;43896;48.178;11.578;2022-09-09T10:13:11;1.98;;;0.80;;
58091;SDS011;43896;48.178;11.578;2022-09-09T10:15:46;2.78;;;0.90;;
58091;SDS011;43896;48.178;11.578;2022-09-09T10:26:59;5.55;;;1.10;;
58091;SDS011;43896;48.178;11.578;2022-09-09T10:35:22;3.50;;;1.23;;
58091;SDS011;43896;48.178;11.578;2022-09-09T10:38:00;2.65;;;0.90;;
58091;SDS011;43896;48.178;11.578;2022-09-09T10:43:12;2.45;;;1.20;;
58091;SDS011;43896;48.178;11.578;2022-09-09T10:48:31;3.97;;;1.20;;
58091;SDS011;43896;48.178;11.578;2022-09-09T10:53:59;2.80;;;1.10;;
58091;SDS011;43896;48.178;11.578;2022-09-09T10:56:45;2.92;;;1.17;;
58091;SDS011;43896;48.178;11.578;2022-09-09T10:59:19;2.58;;;1.10;;
58091;SDS011;43896;48.178;11.578;2022-09-09T11:01:56;3.75;;;1.10;;
58091;SDS011;43896;48.178;11.578;2022-09-09T11:04:52;2.60;;;0.90;;
58091;SDS011;43896;48.178;11.578;2022-09-09T11:07:28;3.45;;;1.00;;
58091;SDS011;43896;48.178;11.578;2022-09-09T11:10:04;2.75;;;1.20;;
58091;SDS011;43896;48.178;11.578;2022-09-09T11:12:37;4.45;;;1.20;;
58091;SDS011;43896;48.178;11.578;2022-09-09T11:15:17;4.88;;;1.25;;
58091;SDS011;43896;48.178;11.578;2022-09-09T11:17:58;3.70;;;1.20;;
58091;SDS011;43896;48.178;11.578;2022-09-09T11:20:26;3.55;;;1.10;;
58091;SDS011;43896;48.178;11.578;2022-09-09T11:22:54;2.10;;;0.93;;
58091;SDS011;43896;48.178;11.578;2022-09-09T11:25:27;2.40;;;1.00;;
58091;SDS011;43896;48.178;11.578;2022-09-09T11:28:16;3.75;;;1.10;;
58091;SDS011;43896;48.178;11.578;2022-09-09T11:31:04;3.10;;;0.90;;
58091;SDS011;43896;48.178;11.578;2022-09-09T11:33:42;2.80;;;0.82;;
58091;SDS011;43896;48.178;11.578;2022-09-09T11:42:05;2.20;;;0.70;;
58091;SDS011;43896;48.178;11.578;2022-09-09T11:44:32;2.42;;;0.82;;
58091;SDS011;43896;48.178;11.578;2022-09-09T11:46:57;1.85;;;0.80;;
58091;SDS011;43896;48.178;11.578;2022-09-09T11:49:29;2.55;;;0.70;;
58091;SDS011;43896;48.178;11.578;2022-09-09T11:52:10;0.98;;;0.60;;
58091;SDS011;43896;48.178;11.578;2022-09-09T11:54:44;1.88;;;0.52;;
58091;SDS011;43896;48.178;11.578;2022-09-09T11:59:55;1.63;;;0.50;;
58091;SDS011;43896;48.178;11.578;2022-09-09T12:02:25;1.83;;;0.63;;
58091;SDS011;43896;48.178;11.578;2022-09-09T12:13:16;1.73;;;0.60;;
58091;SDS011;43896;48.178;11.578;2022-09-09T12:15:54;1.98;;;0.52;;
58091;SDS011;43896;48.178;11.578;2022-09-09T12:18:34;2.65;;;0.60;;
58091;SDS011;43896;48.178;11.578;2022-09-09T12:26:47;1.58;;;0.50;;
58091;SDS011;43896;48.178;11.578;2022-09-09T12:29:25;1.25;;;0.50;;
58091;SDS011;43896;48.178;11.578;2022-09-09T12:31:59;1.58;;;0.60;;
58091;SDS011;43896;48.178;11.578;2022-09-09T12:37:12;2.10;;;0.80;;
58091;SDS011;43896;48.178;11.578;2022-09-09T12:40:05;1.30;;;0.63;;
58091;SDS011;43896;48.178;11.578;2022-09-09T12:42:44;2.75;;;0.80;;
58091;SDS011;43896;48.178;11.578;2022-09-09T12:45:19;2.03;;;0.77;;
58091;SDS011;43896;48.178;11.578;2022-09-09T12:47:48;1.85;;;0.68;;
58091;SDS011;43896;48.178;11.578;2022-09-09T12:53:11;1.85;;;0.70;;
58091;SDS011;43896;48.178;11.578;2022-09-09T12:55:58;1.35;;;0.60;;
58091;SDS011;43896;48.178;11.578;2022-09-09T12:58:27;2.85;;;0.85;;
58091;SDS011;43896;48.178;11.578;2022-09-09T13:00:58;4.07;;;0.90;;
58091;SDS011;43896;48.178;11.578;2022-09-09T13:03:25;1.75;;;0.60;;
58091;SDS011;43896;48.178;11.578;2022-09-09T13:05:51;2.67;;;0.50;;
58091;SDS011;43896;48.178;11.578;2022-09-09T13:08:18;2.08;;;0.70;;
58091;SDS011;43896;48.178;11.578;2022-09-09T13:13:21;1.98;;;0.60;;
58091;SDS011;43896;48.178;11.578;2022-09-09T13:15:50;1.00;;;0.60;;
58091;SDS011;43896;48.178;11.578;2022-09-09T13:18:18;1.45;;;0.50;;
58091;SDS011;43896;48.178;11.578;2022-09-09T13:20:48;1.48;;;0.60;;
58091;SDS011;43896;48.178;11.578;2022-09-09T13:23:15;3.05;;;0.70;;
58091;SDS011;43896;48.178;11.578;2022-09-09T13:28:20;1.92;;;0.70;;
58091;SDS011;43896;48.178;11.578;2022-09-09T13:30:57;1.77;;;0.70;;
58091;SDS011;43896;48.178;11.578;2022-09-09T13:33:33;1.83;;;0.70;;
58091;SDS011;43896;48.178;11.578;2022-09-09T13:36:04;1.95;;;0.65;;
58091;SDS011;43896;48.178;11.578;2022-09-09T13:38:33;1.57;;;0.60;;
58091;SDS011;43896;48.178;11.578;2022-09-09T13:43:42;2.15;;;0.60;;
58091;SDS011;43896;48.178;11.578;2022-09-09T13:51:43;0.95;;;0.50;;
58091;SDS011;43896;48.178;11.578;2022-09-09T13:54:12;1.38;;;0.50;;
58091;SDS011;43896;48.178;11.578;2022-09-09T13:56:39;1.90;;;0.55;;
58091;SDS011;43896;48.178;11.578;2022-09-09T13:59:09;2.33;;;0.50;;
58091;SDS011;43896;48.178;11.578;2022-09-09T14:01:37;2.85;;;0.50;;
58091;SDS011;43896;48.178;11.578;2022-09-09T14:04:02;1.02;;;0.50;;
58091;SDS011;43896;48.178;11.578;2022-09-09T14:06:28;3.15;;;0.60;;
58091;SDS011;43896;48.178;11.578;2022-09-09T14:08:54;1.30;;;0.52;;
58091;SDS011;43896;48.178;11.578;2022-09-09T14:11:19;2.47;;;0.60;;
58091;SDS011;43896;48.178;11.578;2022-09-09T14:13:46;1.23;;;0.50;;
58091;SDS011;43896;48.178;11.578;2022-09-09T14:16:12;1.10;;;0.50;;
58091;SDS011;43896;48.178;11.578;2022-09-09T14:18:37;1.63;;;0.50;;
58091;SDS011;43896;48.178;11.578;2022-09-09T14:21:03;1.70;;;0.70;;
58091;SDS011;43896;48.178;11.578;2022-09-09T14:23:29;2.10;;;0.75;;
58091;SDS011;43896;48.178;11.578;2022-09-09T14:25:55;3.15;;;0.75;;
58091;SDS011;43896;48.178;11.578;2022-09-09T14:28:20;3.72;;;0.70;;
58091;SDS011;43896;48.178;11.578;2022-09-09T14:30:46;4.07;;;0.80;;
58091;SDS011;43896;48.178;11.578;2022-09-09T14:33:12;1.58;;;0.60;;
58091;SDS011;43896;48.178;11.578;2022-09-09T14:35:39;3.00;;;0.70;;
58091;SDS011;43896;48.178;11.578;2022-09-09T14:38:06;3.30;;;0.75;;
58091;SDS011;43896;48.178;11.578;2022-09-09T14:40:34;1.33;;;0.60;;
58091;SDS011;43896;48.178;11.578;2022-09-09T14:43:00;2.53;;;0.70;;
58091;SDS011;43896;48.178;11.578;2022-09-09T14:45:26;2.13;;;0.68;;
58091;SDS011;43896;48.178;11.578;2022-09-09T14:47:51;2.20;;;0.60;;
58091;SDS011;43896;48.178;11.578;2022-09-09T14:50:18;3.45;;;0.80;;
58091;SDS011;43896;48.178;11.578;2022-09-09T14:52:44;3.30;;;0.70;;
58091;SDS011;43896;48.178;11.578;2022-09-09T14:55:10;1.75;;;0.60;;
58091;SDS011;43896;48.178;11.578;2022-09-09T14:57:36;2.13;;;0.50;;
58091;SDS011;43896;48.178;11.578;2022-09-09T15:00:03;2.88;;;0.63;;
58091;SDS011;43896;48.178;11.578;2022-09-09T15:02:30;3.95;;;0.70;;
58091;SDS011;43896;48.178;11.578;2022-09-09T15:04:56;2.78;;;0.70;;
58091;SDS011;43896;48.178;11.578;2022-09-09T15:07:22;1.88;;;0.50;;
58091;SDS011;43896;48.178;11.578;2022-09-09T15:09:48;2.47;;;0.60;;
58091;SDS011;43896;48.178;11.578;2022-09-09T15:12:14;3.85;;;0.70;;
58091;SDS011;43896;48.178;11.578;2022-09-09T15:14:40;1.55;;;0.50;;
58091;SDS011;43896;48.178;11.578;2022-09-09T15:17:06;1.85;;;0.70;;
58091;SDS011;43896;48.178;11.578;2022-09-09T15:19:31;2.30;;;0.60;;
58091;SDS011;43896;48.178;11.578;2022-09-09T15:21:57;2.28;;;0.60;;
58091;SDS011;43896;48.178;11.578;2022-09-09T15:24:23;1.40;;;0.50;;
58091;SDS011;43896;48.178;11.578;2022-09-09T15:26:48;2.47;;;0.70;;
58091;SDS011;43896;48.178;11.578;2022-09-09T15:29:13;1.95;;;0.50;;
58091;SDS011;43896;48.178;11.578;2022-09-09T15:31:39;2.95;;;0.70;;
58091;SDS011;43896;48.178;11.578;2022-09-09T15:34:05;1.73;;;0.60;;
58091;SDS011;43896;48.178;11.578;2022-09-09T15:36:38;2.47;;;0.60;;
58091;SDS011;43896;48.178;11.578;2022-09-09T15:39:07;2.90;;;0.60;;
58091;SDS011;43896;48.178;11.578;2022-09-09T15:41:37;1.30;;;0.50;;
58091;SDS011;43896;48.178;11.578;2022-09-09T15:44:03;2.03;;;0.60;;
58091;SDS011;43896;48.178;11.578;2022-09-09T15:46:32;1.02;;;0.50;;
58091;SDS011;43896;48.178;11.578;2022-09-09T15:49:05;2.30;;;0.65;;
58091;SDS011;43896;48.178;11.578;2022-09-09T15:51:35;1.65;;;0.75;;
58091;SDS011;43896;48.178;11.578;2022-09-09T15:54:04;2.55;;;0.60;;
58091;SDS011;43896;48.178;11.578;2022-09-09T15:56:30;3.38;;;0.60;;
58091;SDS011;43896;48.178;11.578;2022-09-09T15:58:56;1.52;;;0.55;;
58091;SDS011;43896;48.178;11.578;2022-09-09T16:01:22;1.23;;;0.50;;
58091;SDS011;43896;48.178;11.578;2022-09-09T16:03:48;2.35;;;0.60;;
58091;SDS011;43896;48.178;11.578;2022-09-09T16:06:17;2.17;;;0.60;;
58091;SDS011;43896;48.178;11.578;2022-09-09T16:08:46;2.55;;;0.50;;
58091;SDS011;43896;48.178;11.578;2022-09-09T16:11:13;2.65;;;0.75;;
58091;SDS011;43896;48.178;11.578;2022-09-09T16:13:40;2.78;;;0.60;;
58091;SDS011;43896;48.178;11.578;2022-09-09T16:16:09;2.15;;;0.60;;
58091;SDS011;43896;48.178;11.578;2022-09-09T16:18:36;2.08;;;0.60;;
58091;SDS011;43896;48.178;11.578;2022-09-09T16:21:03;2.47;;;0.68;;
58091;SDS011;43896;48.178;11.578;2022-09-09T16:23:33;2.17;;;0.50;;
58091;SDS011;43896;48.178;11.578;2022-09-09T16:26:00;2.78;;;0.70;;
58091;SDS011;43896;48.178;11.578;2022-09-09T16:28:26;3.50;;;0.65;;
58091;SDS011;43896;48.178;11.578;2022-09-09T16:30:52;1.65;;;0.60;;
58091;SDS011;43896;48.178;11.578;2022-09-09T16:33:18;1.50;;;0.60;;
58091;SDS011;43896;48.178;11.578;2022-09-09T16:35:43;2.30;;;0.65;;
58091;SDS011;43896;48.178;11.578;2022-09-09T16:38:09;1.92;;;0.60;;
58091;SDS011;43896;48.178;11.578;2022-09-09T16:40:35;2.42;;;0.82;;
58091;SDS011;43896;48.178;11.578;2022-09-09T16:43:01;2.35;;;0.60;;
58091;SDS011;43896;48.178;11.578;2022-09-09T16:45:27;1.85;;;0.60;;
58091;SDS011;43896;48.178;11.578;2022-09-09T16:47:52;1.83;;;0.60;;
58091;SDS011;43896;48.178;11.578;2022-09-09T16:50:18;1.95;;;0.60;;
58091;SDS011;43896;48.178;11.578;2022-09-09T16:52:43;2.70;;;0.63;;
58091;SDS011;43896;48.178;11.578;2022-09-09T16:55:09;2.72;;;0.70;;
58091;SDS011;43896;48.178;11.578;2022-09-09T16:57:34;2.05;;;0.60;;
58091;SDS011;43896;48.178;11.578;2022-09-09T17:00:00;3.10;;;0.70;;